Time;durP1;ratioP1;P1;durP2;ratioP2;P2;SDS_P1;SDS_P2;PMS_P1;PMS_P2;Temp;Humidity;BMP_temperature;BMP_pressure;BME280_temperature;BME280_humidity;BME280_pressure;Samples;Min_cycle;Max_cycle;Signal;HPM_P1;HPM_P2
2022/03/30 00:01:33;;;;;;;18.35;9.02;;;;;;;7.72;73.69;62794.47;5070763;28;20210;-80
2022/03/30 00:04:01;;;;;;;13.80;8.70;;;;;;;7.70;74.12;62794.94;5056172;28;20205;-80
2022/03/30 00:06:28;;;;;;;27.08;10.25;;;;;;;7.47;76.07;62768.69;5071562;28;20264;-80
2022/03/30 00:08:55;;;;;;;15.25;9.13;;;;;;;7.54;75.71;62773.38;5073733;28;20201;-80
2022/03/30 00:11:23;;;;;;;17.65;9.13;;;;;;;7.62;76.09;62779.09;5071482;28;20197;-78
2022/03/30 00:13:50;;;;;;;15.25;10.32;;;;;;;7.55;76.54;62777.47;5070673;28;20251;-79
2022/03/30 00:16:16;;;;;;;24.73;10.35;;;;;;;7.54;76.94;62781.47;5069396;28;20258;-78
2022/03/30 00:18:43;;;;;;;18.83;9.85;;;;;;;7.46;77.83;62767.63;5072732;28;20239;-80
2022/03/30 00:21:11;;;;;;;18.95;10.30;;;;;;;7.32;78.31;62753.72;5072772;28;20212;-81
2022/03/30 00:23:39;;;;;;;16.05;9.85;;;;;;;7.46;78.74;62767.63;5072181;28;20513;-80
2022/03/30 00:26:06;;;;;;;14.38;9.68;;;;;;;7.43;78.83;62765.06;5063869;28;20198;-81
2022/03/30 00:28:32;;;;;;;16.60;10.10;;;;;;;7.42;78.93;62761.00;5052885;28;20218;-80
2022/03/30 00:30:59;;;;;;;16.75;9.90;;;;;;;7.43;79.40;62762.03;5051696;28;20222;-80
2022/03/30 00:33:26;;;;;;;15.02;10.00;;;;;;;7.39;79.41;62763.47;5052677;28;20225;-80
2022/03/30 00:35:53;;;;;;;17.88;10.05;;;;;;;7.40;80.20;62764.50;5072772;28;20537;-79
2022/03/30 00:38:22;;;;;;;17.50;9.35;;;;;;;7.34;80.49;62752.72;5076382;28;20228;-79
2022/03/30 00:40:49;;;;;;;14.77;9.57;;;;;;;7.29;80.51;62752.63;5070467;28;20208;-80
2022/03/30 00:43:16;;;;;;;16.10;9.38;;;;;;;7.26;81.17;62750.06;5071164;28;20217;-80
2022/03/30 00:45:44;;;;;;;15.43;9.60;;;;;;;7.20;81.06;62741.31;5069515;28;20231;-81
2022/03/30 00:48:11;;;;;;;15.48;9.07;;;;;;;7.24;81.07;62742.41;5070907;28;20225;-80
2022/03/30 00:50:38;;;;;;;12.10;9.00;;;;;;;7.10;82.74;62733.53;5059390;28;20264;-79
2022/03/30 00:53:05;;;;;;;17.80;8.88;;;;;;;7.19;81.68;62745.38;5072615;28;20277;-80
2022/03/30 00:55:35;;;;;;;15.48;9.88;;;;;;;7.23;81.10;62746.94;5070732;28;20239;-80
2022/03/30 00:58:02;;;;;;;20.98;10.13;;;;;;;7.21;81.65;62741.84;5071940;28;20271;-80
2022/03/30 01:00:30;;;;;;;18.92;8.52;;;;;;;7.34;81.28;62757.78;5072023;28;20502;-80
2022/03/30 01:02:57;;;;;;;21.00;9.98;;;;;;;7.37;81.26;62760.91;5071407;28;20248;-79
2022/03/30 01:05:24;;;;;;;19.10;9.77;;;;;;;7.32;80.82;62751.19;5071312;28;20204;-80
2022/03/30 01:07:51;;;;;;;14.20;9.40;;;;;;;7.27;81.10;62743.50;5071026;28;20225;-81
2022/03/30 01:10:19;;;;;;;13.95;9.35;;;;;;;7.22;80.85;62740.88;5072524;28;20201;-80
2022/03/30 01:12:52;;;;;;;17.02;9.65;;;;;;;7.41;79.77;62759.94;5071385;28;20217;-80
2022/03/30 01:15:20;;;;;;;15.65;9.65;;;;;;;7.44;79.73;62768.63;5070082;28;20239;-80
2022/03/30 01:17:47;;;;;;;17.83;9.55;;;;;;;7.46;79.70;62768.16;5060833;28;20221;-79
2022/03/30 01:20:17;;;;;;;15.02;9.02;;;;;;;7.54;79.99;62773.88;5071718;28;20198;-80
2022/03/30 01:22:46;;;;;;;16.10;7.97;;;;;;;7.46;79.78;62768.16;5070270;28;20375;-79
2022/03/30 01:25:13;;;;;;;13.60;9.13;;;;;;;7.48;80.02;62764.66;5072698;28;20201;-79
2022/03/30 01:27:40;;;;;;;12.90;7.95;;;;;;;7.55;79.69;62776.94;5073036;28;20217;-80
2022/03/30 01:32:56;;;;;;;12.70;8.18;;;;;;;7.38;80.28;62759.91;5074176;28;20243;-80
2022/03/30 01:35:24;;;;;;;18.17;9.38;;;;;;;7.40;80.49;62759.44;5076422;28;20217;-79
2022/03/30 01:37:52;;;;;;;14.85;8.88;;;;;;;7.30;81.65;62751.66;5078057;28;20241;-80
2022/03/30 01:40:19;;;;;;;17.92;8.93;;;;;;;7.19;81.94;62740.31;5074774;28;20205;-80
2022/03/30 01:42:46;;;;;;;19.95;9.57;;;;;;;7.27;82.35;62748.03;5075531;28;20244;-80
2022/03/30 01:45:15;;;;;;;15.45;9.13;;;;;;;7.23;82.19;62749.47;5075029;28;20418;-79
2022/03/30 01:47:48;;;;;;;19.08;9.43;;;;;;;7.40;81.78;62764.50;5075338;28;20228;-80
2022/03/30 01:50:15;;;;;;;20.25;9.40;;;;;;;7.39;81.97;62755.34;5075202;28;20178;-81
2022/03/30 01:52:42;;;;;;;15.57;9.30;;;;;;;7.49;81.17;62768.72;5074823;28;20225;-79
2022/03/30 01:55:11;;;;;;;16.33;8.98;;;;;;;7.38;81.45;62754.84;5074422;28;20266;-79
2022/03/30 01:57:38;;;;;;;12.75;9.45;;;;;;;7.33;81.52;62762.34;5072149;28;20229;-80
2022/03/30 02:00:06;;;;;;;14.95;8.45;;;;;;;7.45;81.26;62764.09;5072161;28;20251;-79
2022/03/30 02:02:33;;;;;;;14.45;9.13;;;;;;;7.44;81.48;62768.13;5070659;28;20240;-79
2022/03/30 02:04:59;;;;;;;19.02;9.85;;;;;;;7.35;81.93;62759.34;5071966;28;20275;-79
2022/03/30 02:07:26;;;;;;;15.07;9.25;;;;;;;7.37;81.27;62765.97;5072428;28;20228;-80
2022/03/30 02:09:53;;;;;;;15.50;9.80;;;;;;;7.28;81.55;62752.13;5075453;28;20265;-81
2022/03/30 02:12:21;;;;;;;16.27;9.60;;;;;;;7.15;83.02;62736.16;5073778;28;20279;-80
2022/03/30 02:14:51;;;;;;;16.45;9.90;;;;;;;7.24;82.78;62753.06;5054725;28;20247;-79
2022/03/30 02:17:19;;;;;;;15.95;8.77;;;;;;;7.22;82.88;62745.94;5053770;28;20222;-79
2022/03/30 02:19:46;;;;;;;22.38;9.77;;;;;;;7.11;83.53;62736.59;5055304;28;20206;-80
2022/03/30 02:22:13;;;;;;;14.40;9.68;;;;;;;7.03;84.52;62723.78;5070334;28;20218;-79
2022/03/30 02:24:40;;;;;;;12.38;8.80;;;;;;;7.17;83.44;62737.72;5073851;28;20208;-79
2022/03/30 02:27:07;;;;;;;19.55;9.90;;;;;;;7.09;84.04;62730.00;5072792;28;20220;-80
2022/03/30 02:29:36;;;;;;;16.60;9.15;;;;;;;7.11;84.02;62729.00;5071502;28;20197;-79
2022/03/30 02:32:03;;;;;;;16.67;9.40;;;;;;;7.03;84.66;62726.31;5071599;28;20232;-80
2022/03/30 02:34:30;;;;;;;17.00;9.95;;;;;;;7.03;84.64;62724.31;5070828;28;20206;-79
2022/03/30 02:36:57;;;;;;;18.42;9.00;;;;;;;7.07;84.32;62730.97;5072423;28;20278;-79
2022/03/30 02:39:24;;;;;;;16.23;9.20;;;;;;;7.09;84.14;62734.53;5073500;28;20212;-80
2022/03/30 02:41:50;;;;;;;15.30;9.60;;;;;;;7.03;84.37;62728.84;5074822;28;20223;-79
2022/03/30 02:44:17;;;;;;;15.73;9.15;;;;;;;6.95;84.51;62716.03;5074880;28;20224;-80
2022/03/30 02:46:45;;;;;;;16.20;9.82;;;;;;;7.00;84.79;62723.75;5073265;28;20225;-80
2022/03/30 02:49:12;;;;;;;22.63;9.63;;;;;;;7.03;85.12;62726.84;5074930;28;20202;-80
2022/03/30 02:51:39;;;;;;;14.90;9.80;;;;;;;6.87;85.46;62702.22;5072570;28;20197;-80
2022/03/30 02:54:07;;;;;;;13.73;9.05;;;;;;;6.76;85.58;62693.41;5072669;28;20220;-80
2022/03/30 02:56:34;;;;;;;14.10;8.77;;;;;;;6.89;85.68;62709.88;5072787;28;20298;-81
2022/03/30 02:59:01;;;;;;;23.52;9.35;;;;;;;6.92;85.26;62712.97;5071068;28;20241;-79
2022/03/30 03:01:28;;;;;;;14.50;9.45;;;;;;;6.88;85.29;62711.38;5071845;28;20213;-79
2022/03/30 03:03:57;;;;;;;16.15;9.18;;;;;;;6.90;85.46;62708.34;5073351;28;20220;-79
2022/03/30 03:06:23;;;;;;;16.08;9.60;;;;;;;6.84;85.74;62704.72;5071146;28;20196;-79
2022/03/30 03:08:51;;;;;;;13.73;9.70;;;;;;;6.81;86.19;62696.03;5070963;28;20201;-79
2022/03/30 03:11:18;;;;;;;15.10;9.40;;;;;;;6.81;86.66;62701.09;5070738;28;20276;-79
2022/03/30 03:13:45;;;;;;;15.43;9.02;;;;;;;6.78;87.12;62698.00;5069152;28;20229;-79
2022/03/30 03:16:13;;;;;;;12.57;9.20;;;;;;;6.70;87.26;62687.22;5050170;28;20234;-80
2022/03/30 03:18:40;;;;;;;17.48;11.32;;;;;;;6.77;87.71;62694.44;5062768;28;20548;-80
2022/03/30 03:21:09;;;;;;;16.58;11.02;;;;;;;6.79;87.76;62697.03;5068668;28;20202;-79
2022/03/30 03:23:36;;;;;;;16.80;10.63;;;;;;;6.74;87.80;62693.88;5071085;28;20218;-79
2022/03/30 03:26:03;;;;;;;25.20;13.40;;;;;;;6.64;87.85;62681.03;5074853;28;20205;-80
2022/03/30 03:28:30;;;;;;;18.80;10.55;;;;;;;6.73;88.15;62693.34;5067414;28;20217;-80
2022/03/30 03:30:57;;;;;;;25.95;15.88;;;;;;;6.66;88.78;62690.69;5071152;28;20203;-79
2022/03/30 03:33:24;;;;;;;72.03;43.80;;;;;;;6.65;88.80;62685.13;5072475;28;20291;-80
2022/03/30 03:35:51;;;;;;;14.73;10.35;;;;;;;6.54;88.98;62676.28;5070754;28;20221;-80
2022/03/30 03:38:20;;;;;;;16.83;9.55;;;;;;;6.65;88.89;62690.16;5072267;28;20263;-79
2022/03/30 03:40:47;;;;;;;16.05;9.43;;;;;;;6.65;88.94;62684.59;5069961;28;20273;-80
2022/03/30 03:43:13;;;;;;;19.95;9.73;;;;;;;6.60;89.28;62677.44;5071722;28;20221;-80
2022/03/30 03:45:40;;;;;;;15.32;9.38;;;;;;;6.56;89.67;62675.31;5072110;28;20219;-80
2022/03/30 03:48:07;;;;;;;18.20;9.02;;;;;;;6.52;89.70;62674.22;5073355;28;20471;-79
2022/03/30 03:50:34;;;;;;;15.38;9.02;;;;;;;6.52;89.46;62671.69;5072247;28;20202;-81
2022/03/30 03:53:02;;;;;;;20.75;9.70;;;;;;;6.51;89.38;62670.16;5073740;28;20236;-79
2022/03/30 03:55:33;;;;;;;10.45;8.38;;;;;;;6.45;89.94;62663.97;5062891;28;20233;-81
2022/03/30 03:58:01;;;;;;;13.35;8.63;;;;;;;6.50;90.01;62674.72;5055306;28;20281;-79
2022/03/30 04:00:28;;;;;;;19.08;10.43;;;;;;;6.48;90.16;62667.59;5054759;28;20217;-79
2022/03/30 04:02:55;;;;;;;17.00;9.52;;;;;;;6.35;91.60;62658.72;5075539;28;20231;-80
2022/03/30 04:05:22;;;;;;;16.73;10.63;;;;;;;6.27;92.43;62640.34;5075400;28;20209;-80
2022/03/30 04:07:49;;;;;;;20.00;9.30;;;;;;;6.12;92.77;62633.00;5073669;28;20228;-80
2022/03/30 04:10:17;;;;;;;16.42;8.13;;;;;;;6.16;93.59;62636.59;5073068;28;20212;-80
2022/03/30 04:12:45;;;;;;;12.88;7.50;;;;;;;6.06;94.28;62626.81;5067368;28;20237;-80
2022/03/30 04:15:12;;;;;;;13.65;8.48;;;;;;;6.13;94.33;62630.97;5072789;28;20197;-80
2022/03/30 04:17:45;;;;;;;14.93;7.38;;;;;;;6.09;94.48;62629.38;5073471;28;20217;-81
2022/03/30 04:20:13;;;;;;;16.17;8.82;;;;;;;6.11;94.59;62628.94;5072557;28;20209;-79
2022/03/30 04:22:41;;;;;;;17.67;9.38;;;;;;;6.24;94.37;62650.41;5071866;28;20255;-80
2022/03/30 04:25:09;;;;;;;13.18;8.90;;;;;;;6.25;94.12;62643.34;5072887;28;20197;-79
2022/03/30 04:27:36;;;;;;;11.55;8.48;;;;;;;6.33;93.18;62654.66;5072865;28;20213;-79
2022/03/30 04:30:05;;;;;;;11.70;7.88;;;;;;;6.32;93.27;62648.03;5072342;28;20227;-79
2022/03/30 04:32:32;;;;;;;11.95;7.72;;;;;;;6.39;93.42;62660.31;5073378;28;20217;-80
2022/03/30 04:34:59;;;;;;;16.40;8.52;;;;;;;6.46;93.20;62665.50;5074323;28;20197;-81
2022/03/30 04:37:26;;;;;;;17.73;9.05;;;;;;;6.52;92.60;62671.69;5072970;28;20259;-79
2022/03/30 04:39:53;;;;;;;17.23;8.88;;;;;;;6.55;92.63;62674.81;5055904;28;20262;-78
2022/03/30 04:42:21;;;;;;;18.75;11.23;;;;;;;6.58;91.71;62677.91;5063458;28;20221;-79
2022/03/30 04:44:48;;;;;;;23.27;10.02;;;;;;;6.70;91.40;62689.75;5075192;28;20253;-79
2022/03/30 04:47:17;;;;;;;16.88;9.65;;;;;;;6.73;91.24;62693.34;5074419;28;20231;-79
2022/03/30 04:49:44;;;;;;;15.77;9.75;;;;;;;6.84;91.00;62704.72;5076296;28;20204;-79
2022/03/30 04:52:11;;;;;;;19.60;10.18;;;;;;;6.92;90.95;62715.50;5075728;28;20237;-80
2022/03/30 04:54:39;;;;;;;20.08;10.15;;;;;;;7.00;90.69;62720.69;5075984;28;20232;-79
2022/03/30 04:57:06;;;;;;;19.25;9.68;;;;;;;7.11;90.15;62734.06;5073905;28;20263;-80
2022/03/30 04:59:33;;;;;;;18.55;9.15;;;;;;;7.26;89.09;62744.47;5071945;28;20193;-79
2022/03/30 05:02:00;;;;;;;14.15;8.90;;;;;;;7.42;87.92;62766.56;5071615;28;20217;-79
2022/03/30 05:04:32;;;;;;;20.38;9.10;;;;;;;7.53;87.62;62777.41;5074850;28;20498;-80
2022/03/30 05:06:59;;;;;;;17.40;9.23;;;;;;;7.63;86.48;62783.19;5073858;28;20293;-80
2022/03/30 05:09:26;;;;;;;19.83;8.85;;;;;;;7.82;85.81;62805.31;5071435;28;20441;-80
2022/03/30 05:11:53;;;;;;;14.80;9.02;;;;;;;7.93;85.36;62813.63;5069711;28;20572;-80
2022/03/30 05:14:20;;;;;;;21.83;9.27;;;;;;;8.03;84.52;62829.53;5061369;28;20197;-81
2022/03/30 05:16:47;;;;;;;13.05;9.15;;;;;;;8.14;84.07;62835.81;5054386;28;20229;-81
2022/03/30 05:19:14;;;;;;;22.05;8.52;;;;;;;8.30;84.17;62848.81;5066962;28;20235;-80
2022/03/30 05:21:42;;;;;;;18.67;9.07;;;;;;;8.45;84.06;62869.91;5074401;28;20204;-81
2022/03/30 05:24:09;;;;;;;17.45;8.40;;;;;;;8.56;83.94;62883.28;5058189;28;20206;-80
2022/03/30 05:26:36;;;;;;;19.35;10.65;;;;;;;8.52;83.25;62879.16;5062494;28;20201;-81
2022/03/30 05:29:03;;;;;;;13.35;9.55;;;;;;;8.67;82.85;62895.16;5070190;28;20197;-82
2022/03/30 05:31:30;;;;;;;18.88;9.65;;;;;;;8.69;82.49;62894.16;5070688;28;20265;-80
2022/03/30 05:33:57;;;;;;;27.75;11.30;;;;;;;8.60;83.06;62885.38;5070196;28;20212;-80
2022/03/30 05:36:24;;;;;;;22.85;10.93;;;;;;;8.62;82.65;62887.47;5071591;28;20231;-81
2022/03/30 05:38:52;;;;;;;24.60;10.45;;;;;;;8.85;81.88;62913.25;5065293;28;20189;-81
2022/03/30 05:41:19;;;;;;;26.38;12.18;;;;;;;9.10;80.96;62934.53;5034777;28;20201;-81
2022/03/30 05:43:46;;;;;;;23.95;11.38;;;;;;;9.27;80.13;62956.66;5059298;28;20307;-79
2022/03/30 05:46:14;;;;;;;19.17;10.32;;;;;;;9.49;78.51;62976.84;5056960;28;20292;-81
2022/03/30 05:48:40;;;;;;;21.33;9.43;;;;;;;9.59;77.49;62987.22;5065711;28;20225;-80
2022/03/30 05:51:07;;;;;;;23.15;9.73;;;;;;;9.67;76.31;62997.50;5061364;28;20208;-80
2022/03/30 05:53:35;;;;;;;18.23;10.60;;;;;;;9.80;75.55;63008.41;5067361;28;20221;-80
2022/03/30 05:56:04;;;;;;;20.45;9.48;;;;;;;9.82;75.03;63010.97;5068851;28;20225;-81
2022/03/30 05:58:30;;;;;;;21.73;10.80;;;;;;;9.94;74.09;63022.91;5068652;28;20217;-80
2022/03/30 06:00:57;;;;;;;14.70;9.90;;;;;;;10.01;72.45;63033.19;5066281;28;20198;-81
2022/03/30 06:03:24;;;;;;;15.35;10.05;;;;;;;10.12;72.77;63041.53;5071366;28;20227;-81
2022/03/30 06:05:51;;;;;;;13.13;9.07;;;;;;;10.07;72.37;63036.34;5088116;28;20228;-81
2022/03/30 06:08:18;;;;;;;19.35;9.73;;;;;;;10.09;71.50;63038.94;5080682;28;20225;-80
2022/03/30 06:10:46;;;;;;;19.67;10.68;;;;;;;10.26;71.68;63056.00;5070494;28;20200;-81
2022/03/30 06:13:14;;;;;;;13.68;9.23;;;;;;;10.37;69.40;63070.44;5071743;28;20231;-80
2022/03/30 06:15:42;;;;;;;18.85;9.98;;;;;;;10.42;68.68;63072.56;5074392;28;20189;-80
2022/03/30 06:18:12;;;;;;;18.70;11.70;;;;;;;10.62;68.77;63092.75;5063180;28;20214;-79
2022/03/30 06:20:40;;;;;;;16.10;10.43;;;;;;;10.75;68.01;63106.22;5056084;28;20197;-80
2022/03/30 06:23:07;;;;;;;11.73;8.95;;;;;;;10.76;66.77;63105.22;5069694;28;20224;-81
2022/03/30 06:25:34;;;;;;;21.95;10.18;;;;;;;10.96;65.61;63130.50;5069924;28;20224;-82
2022/03/30 06:28:02;;;;;;;13.73;9.95;;;;;;;11.06;65.43;63143.41;5070352;28;20235;-81
2022/03/30 06:30:30;;;;;;;19.55;10.40;;;;;;;11.16;64.40;63154.28;5070943;28;20212;-82
2022/03/30 06:32:58;;;;;;;23.08;10.75;;;;;;;10.99;65.13;63133.59;5069957;28;20560;-81
2022/03/30 06:35:25;;;;;;;13.15;9.65;;;;;;;11.08;64.33;63142.94;5071099;28;20193;-81
2022/03/30 06:37:52;;;;;;;14.40;9.77;;;;;;;11.01;65.14;63135.69;5071827;28;20237;-81
2022/03/30 06:40:19;;;;;;;18.52;10.13;;;;;;;11.29;64.22;63162.63;5070075;28;20205;-82
2022/03/30 06:42:48;;;;;;;19.75;9.85;;;;;;;11.41;62.02;63169.97;5071866;28;20292;-81
2022/03/30 06:45:15;;;;;;;20.77;10.80;;;;;;;11.28;62.36;63161.09;5071705;28;20253;-81
2022/03/30 06:47:44;;;;;;;16.00;9.25;;;;;;;11.26;62.44;63159.00;5071768;28;20232;-81
2022/03/30 06:50:13;;;;;;;13.85;9.30;;;;;;;11.62;61.78;63198.84;5070805;28;20247;-81
2022/03/30 06:52:42;;;;;;;19.60;9.38;;;;;;;11.58;60.48;63192.16;5072577;28;20221;-80
2022/03/30 06:55:09;;;;;;;22.25;10.73;;;;;;;11.45;62.03;63181.25;5056974;28;20437;-81
2022/03/30 06:57:36;;;;;;;21.50;9.90;;;;;;;11.60;61.72;63196.78;5074606;28;20237;-82
2022/03/30 07:00:04;;;;;;;22.00;11.88;;;;;;;11.35;62.00;63168.84;5076909;28;20197;-80
2022/03/30 07:02:31;;;;;;;18.90;9.75;;;;;;;11.39;62.93;63173.00;5075394;28;20225;-79
2022/03/30 07:05:00;;;;;;;23.13;10.45;;;;;;;11.17;62.08;63154.78;5074168;28;20197;-81
2022/03/30 07:10:17;;;;;;;19.85;10.20;;;;;;;11.30;62.99;63163.66;5075291;28;20197;-79
2022/03/30 07:12:45;;;;;;;23.83;12.15;;;;;;;11.73;62.93;63204.66;5073641;28;20232;-79
2022/03/30 07:15:13;;;;;;;38.30;11.88;;;;;;;11.89;61.45;63223.78;5069826;28;20194;-81
2022/03/30 07:17:48;;;;;;;17.08;9.98;;;;;;;11.98;59.97;63238.72;5071263;28;20271;-81
2022/03/30 07:20:18;;;;;;;16.92;9.90;;;;;;;11.91;60.06;63228.41;5071991;28;20512;-82
2022/03/30 07:22:47;;;;;;;21.83;10.80;;;;;;;12.05;60.37;63242.91;5075070;28;20209;-82
2022/03/30 07:25:15;;;;;;;16.65;10.15;;;;;;;12.30;59.83;63269.34;5075513;28;20198;-82
2022/03/30 07:27:44;;;;;;;19.48;11.35;;;;;;;12.53;59.24;63293.19;5074741;28;20240;-83
2022/03/30 07:30:12;;;;;;;15.25;9.95;;;;;;;12.70;57.21;63307.75;5074256;28;20261;-81
2022/03/30 07:32:41;;;;;;;25.30;14.63;;;;;;;12.86;58.08;63329.44;5074191;28;20225;-82
2022/03/30 07:35:10;;;;;;;38.83;23.50;;;;;;;13.05;57.89;63346.09;5077590;28;20207;-81
2022/03/30 07:37:40;;;;;;;14.40;10.27;;;;;;;13.24;55.68;63365.81;5074820;28;20511;-81
2022/03/30 07:40:09;;;;;;;18.92;10.32;;;;;;;12.92;55.50;63330.56;5070960;28;20189;-80
2022/03/30 07:42:37;;;;;;;20.67;10.25;;;;;;;12.87;55.53;63325.38;5071289;28;20228;-79
2022/03/30 07:45:05;;;;;;;19.52;11.15;;;;;;;12.68;56.55;63308.22;5070521;28;20189;-80
2022/03/30 07:47:32;;;;;;;21.90;10.73;;;;;;;12.86;56.43;63326.88;5075377;28;20209;-79
2022/03/30 07:49:59;;;;;;;20.45;11.43;;;;;;;12.90;57.32;63330.50;5075047;28;20205;-79
2022/03/30 07:52:27;;;;;;;23.73;11.00;;;;;;;12.86;56.34;63326.38;5074149;28;20249;-79
2022/03/30 07:54:56;;;;;;;17.55;10.25;;;;;;;12.93;55.10;63328.50;5067199;28;20210;-79
2022/03/30 07:57:26;;;;;;;14.75;9.80;;;;;;;12.90;54.74;63328.47;5053275;28;20261;-80
2022/03/30 07:59:54;;;;;;;13.55;9.55;;;;;;;12.93;54.02;63326.47;5066326;28;20197;-79
2022/03/30 08:02:21;;;;;;;13.48;9.02;;;;;;;12.82;54.20;63320.19;5070100;28;20260;-80
2022/03/30 08:04:48;;;;;;;20.77;9.88;;;;;;;12.95;53.96;63333.16;5072063;28;20269;-80
2022/03/30 08:07:15;;;;;;;17.40;10.52;;;;;;;13.06;53.84;63344.59;5072527;28;20213;-80
2022/03/30 08:09:42;;;;;;;15.02;10.15;;;;;;;13.19;53.95;63356.03;5070727;28;20194;-81
2022/03/30 08:12:11;;;;;;;23.67;9.80;;;;;;;12.98;54.34;63339.34;5066699;28;20217;-81
2022/03/30 08:14:38;;;;;;;15.48;10.05;;;;;;;12.73;54.12;63310.84;5064915;28;20209;-81
2022/03/30 08:17:06;;;;;;;16.50;9.85;;;;;;;12.87;53.91;63324.84;5067563;28;20228;-81
2022/03/30 08:19:33;;;;;;;19.38;9.95;;;;;;;13.13;53.33;63354.41;5066161;28;20564;-83
2022/03/30 08:24:46;;;;;;;28.10;11.50;;;;;;;13.62;53.65;63402.69;5066044;28;20205;-82
2022/03/30 08:27:16;;;;;;;17.52;10.20;;;;;;;13.91;51.63;63433.28;5071518;28;20239;-82
2022/03/30 08:29:44;;;;;;;21.45;10.60;;;;;;;13.77;51.00;63413.63;5069723;28;20197;-82
2022/03/30 08:32:12;;;;;;;18.63;11.57;;;;;;;13.87;51.38;63431.69;5075158;28;20209;-79
2022/03/30 08:34:39;;;;;;;21.70;10.85;;;;;;;14.31;49.58;63473.81;5073485;28;20256;-80
2022/03/30 08:37:06;;;;;;;20.92;10.90;;;;;;;14.36;49.89;63482.06;5074839;28;20271;-82
2022/03/30 08:39:35;;;;;;;32.92;15.15;;;;;;;14.74;49.43;63518.47;5075209;28;20209;-80
2022/03/30 08:42:03;;;;;;;22.23;11.05;;;;;;;15.16;49.05;63562.09;5069710;28;20228;-82
2022/03/30 08:44:32;;;;;;;18.90;10.20;;;;;;;15.54;47.08;63603.66;5066848;28;20224;-81
2022/03/30 08:46:59;;;;;;;28.42;10.70;;;;;;;15.51;47.17;63601.06;5065807;28;20266;-82
2022/03/30 08:49:27;;;;;;;18.05;9.00;;;;;;;15.90;45.51;63639.03;5066887;28;20189;-81
2022/03/30 08:51:58;;;;;;;17.40;9.60;;;;;;;16.13;44.33;63662.94;5065907;28;20276;-80
2022/03/30 08:54:24;;;;;;;16.33;9.50;;;;;;;16.30;44.50;63680.13;5061160;28;20399;-81
2022/03/30 08:56:51;;;;;;;18.50;8.95;;;;;;;16.24;44.48;63676.44;5065426;28;20292;-82
2022/03/30 08:59:20;;;;;;;18.35;8.45;;;;;;;16.31;43.01;63688.88;5064807;28;20276;-82
2022/03/30 09:01:48;;;;;;;17.30;8.55;;;;;;;16.09;43.44;63658.28;5064352;28;20228;-82
2022/03/30 09:04:18;;;;;;;16.70;8.90;;;;;;;16.30;43.64;63682.69;5065860;28;20204;-81
2022/03/30 09:06:47;;;;;;;15.05;8.27;;;;;;;16.36;43.60;63685.84;5065851;28;20434;-81
2022/03/30 09:09:16;;;;;;;20.20;10.07;;;;;;;16.51;44.17;63707.13;5065993;28;20444;-82
2022/03/30 09:11:53;;;;;;;16.48;8.57;;;;;;;16.87;43.06;63738.94;5061860;28;20248;-80
2022/03/30 09:14:21;;;;;;;14.77;7.70;;;;;;;16.41;43.88;63693.63;5067397;28;20227;-82
2022/03/30 09:16:51;;;;;;;14.90;8.27;;;;;;;16.39;44.02;63688.97;5066064;28;20220;-82
2022/03/30 09:19:20;;;;;;;16.20;9.07;;;;;;;16.68;43.91;63719.69;5067557;28;20222;-82
2022/03/30 09:21:49;;;;;;;12.48;8.65;;;;;;;17.02;43.20;63757.63;5063782;28;20236;-82
2022/03/30 09:24:18;;;;;;;13.43;9.00;;;;;;;17.34;42.71;63785.28;5048158;28;20502;-83
2022/03/30 09:26:47;;;;;;;22.45;9.90;;;;;;;17.73;42.90;63827.94;5062810;28;20227;-83
2022/03/30 09:29:15;;;;;;;15.38;9.23;;;;;;;17.91;42.39;63846.69;5062957;28;20204;-82
2022/03/30 09:31:42;;;;;;;10.65;8.55;;;;;;;18.17;40.96;63878.94;5060392;28;20258;-82
2022/03/30 09:34:14;;;;;;;13.95;9.02;;;;;;;18.16;39.05;63875.31;5061857;28;20197;-79
2022/03/30 09:36:43;;;;;;;20.95;9.60;;;;;;;18.04;40.37;63860.75;5071247;28;20505;-79
2022/03/30 09:39:27;;;;;;;22.50;8.52;;;;;;;17.80;39.76;63835.25;5071593;28;20197;-79
2022/03/30 09:41:55;;;;;;;19.85;7.85;;;;;;;17.88;39.07;63843.56;5069507;28;20525;-81
2022/03/30 09:44:22;;;;;;;13.07;7.28;;;;;;;18.06;39.19;63862.84;5071773;28;20584;-82
2022/03/30 09:46:53;;;;;;;20.67;7.40;;;;;;;18.48;38.37;63908.16;5071773;28;20349;-79
2022/03/30 09:49:39;;;;;;;18.15;7.55;;;;;;;18.22;38.73;63882.06;5063205;28;20201;-81
2022/03/30 09:52:17;;;;;;;14.07;8.40;;;;;;;18.34;38.44;63892.00;5061385;28;20239;-80
2022/03/30 09:54:49;;;;;;;20.00;7.70;;;;;;;18.53;37.55;63913.38;5072318;28;20216;-80
2022/03/30 09:57:18;;;;;;;18.52;8.05;;;;;;;18.18;38.89;63874.81;5071504;28;20276;-80
2022/03/30 10:00:14;;;;;;;28.52;8.60;;;;;;;18.32;38.54;63884.78;5070786;28;20252;-80
2022/03/30 10:02:43;;;;;;;13.15;8.93;;;;;;;18.54;36.88;63909.75;5071180;28;20224;-81
2022/03/30 10:05:14;;;;;;;15.68;7.20;;;;;;;18.82;35.71;63941.00;5072367;28;20197;-80
2022/03/30 10:07:42;;;;;;;12.20;6.95;;;;;;;18.90;35.25;63951.91;5069324;28;20217;-80
2022/03/30 10:10:13;;;;;;;11.88;6.40;;;;;;;18.45;35.19;63902.47;5069286;28;20193;-78
2022/03/30 10:12:40;;;;;;;14.00;7.38;;;;;;;18.17;35.16;63876.38;5068996;28;20220;-79
2022/03/30 10:15:09;;;;;;;17.20;7.45;;;;;;;18.05;35.63;63866.94;5071441;28;20269;-81
2022/03/30 10:17:38;;;;;;;13.90;7.13;;;;;;;18.40;34.95;63898.28;5055241;28;20225;-80
2022/03/30 10:20:07;;;;;;;14.65;7.28;;;;;;;18.46;35.75;63909.19;5053814;28;20202;-80
2022/03/30 10:23:08;;;;;;;13.98;6.80;;;;;;;18.26;35.04;63878.50;5054948;28;20560;-79
2022/03/30 10:26:07;;;;;;;39.47;22.33;;;;;;;18.32;35.36;63892.50;5070266;28;20225;-80
2022/03/30 10:28:51;;;;;;;44.00;22.20;;;;;;;18.50;34.43;63905.59;5067469;28;20244;-81
2022/03/30 10:31:22;;;;;;;19.35;10.77;;;;;;;18.12;34.24;63871.66;5076234;28;20185;-81
2022/03/30 10:33:52;;;;;;;31.98;15.40;;;;;;;18.25;34.05;63880.06;5070468;28;20205;-80
2022/03/30 10:36:27;;;;;;;11.68;6.90;;;;;;;18.47;34.54;63907.09;5081346;28;20200;-81
2022/03/30 10:39:27;;;;;;;14.35;7.85;;;;;;;18.39;33.98;63894.13;5095026;28;20223;-79
2022/03/30 10:41:56;;;;;;;19.58;7.18;;;;;;;18.32;34.15;63894.56;5059452;28;20235;-79
2022/03/30 10:44:45;;;;;;;8.35;5.78;;;;;;;18.21;34.82;63883.63;5079319;28;20199;-80
2022/03/30 10:47:15;;;;;;;13.88;5.60;;;;;;;18.74;33.88;63935.75;5079410;28;20584;-80
2022/03/30 10:49:47;;;;;;;16.65;6.07;;;;;;;19.10;34.17;63975.38;5067630;28;20198;-81
2022/03/30 10:52:28;;;;;;;11.35;6.03;;;;;;;19.51;33.37;64012.97;5057913;28;20217;-81
2022/03/30 10:55:36;;;;;;;10.48;6.18;;;;;;;19.19;33.44;63980.09;5058300;28;20190;-79
2022/03/30 10:58:05;;;;;;;7.57;4.90;;;;;;;19.65;32.56;64030.16;5076021;28;20224;-80
2022/03/30 11:00:36;;;;;;;11.15;5.20;;;;;;;19.54;30.46;64016.63;5077663;28;20204;-79
2022/03/30 11:03:16;;;;;;;13.25;6.50;;;;;;;18.74;31.88;63935.75;5079380;28;20221;-79
2022/03/30 11:05:58;;;;;;;11.00;5.05;;;;;;;18.55;32.52;63915.97;5079044;28;20207;-79
2022/03/30 11:08:57;;;;;;;11.13;5.30;;;;;;;18.13;32.18;63869.63;5077784;28;20224;-80
2022/03/30 11:11:26;;;;;;;10.77;5.20;;;;;;;17.75;32.31;63837.75;5075805;28;20192;-80
2022/03/30 11:14:40;;;;;;;11.45;5.35;;;;;;;17.70;32.32;63825.34;5075108;28;20197;-80
2022/03/30 11:17:08;;;;;;;13.73;5.15;;;;;;;18.03;31.96;63857.13;5051134;28;20477;-80
2022/03/30 11:20:08;;;;;;;4.70;3.70;;;;;;;18.46;29.50;63906.59;5073744;28;20201;-79
2022/03/30 11:22:36;;;;;;;6.22;3.60;;;;;;;18.69;27.15;63932.63;5073328;28;20236;-79
2022/03/30 11:25:08;;;;;;;5.25;3.40;;;;;;;18.48;27.28;63908.69;5074829;28;20201;-82
2022/03/30 11:27:37;;;;;;;11.18;5.30;;;;;;;18.06;32.01;63862.84;5074796;28;20227;-80
2022/03/30 11:30:15;;;;;;;16.23;6.25;;;;;;;17.79;32.45;63837.28;5073906;28;20190;-79
2022/03/30 11:33:21;;;;;;;12.65;4.35;;;;;;;17.85;32.44;63843.03;5073938;28;20231;-79
2022/03/30 11:35:49;;;;;;;10.05;5.53;;;;;;;18.03;31.38;63859.72;5074609;28;20208;-79
2022/03/30 11:38:23;;;;;;;8.90;3.88;;;;;;;18.10;29.81;63863.91;5074268;28;20244;-81
2022/03/30 11:40:57;;;;;;;7.78;3.70;;;;;;;18.15;29.33;63871.69;5074312;28;20197;-82
2022/03/30 11:43:25;;;;;;;10.48;4.47;;;;;;;18.31;29.68;63890.94;5064554;28;20223;-80
2022/03/30 11:45:54;;;;;;;9.85;5.10;;;;;;;18.19;29.20;63876.38;5055143;28;20194;-81